Time;durP1;ratioP1;P1;durP2;ratioP2;P2;SDS_P1;SDS_P2;PMS_P1;PMS_P2;Temp;Humidity;BMP_temperature;BMP_pressure;BME280_temperature;BME280_humidity;BME280_pressure;Samples;Min_cycle;Max_cycle;Signal;HPM_P1;HPM_P2
2022/11/13 00:02:01;;;;;;;39.42;17.80;;;;;;;;;;5029786;28;20160;-75
2022/11/13 00:04:27;;;;;;;33.33;17.83;;;;;;;;;;5055157;28;20083;-75
2022/11/13 00:06:53;;;;;;;31.98;17.45;;;;;;;;;;5056052;28;20033;-75
2022/11/13 00:09:19;;;;;;;32.95;12.50;;;;;;;;;;5054195;28;20045;-75
2022/11/13 00:11:45;;;;;;;20.95;10.88;;;;;;;;;;5056093;28;20052;-75
2022/11/13 00:14:11;;;;;;;25.88;11.80;;;;;;;;;;5036616;28;20158;-74
2022/11/13 00:16:37;;;;;;;21.92;12.73;;;;;;;;;;5030660;28;20637;-75
2022/11/13 00:19:03;;;;;;;25.02;13.80;;;;;;;;;;5052970;28;20044;-75
2022/11/13 00:21:29;;;;;;;27.50;14.60;;;;;;;;;;5055311;28;20045;-75
2022/11/13 00:23:56;;;;;;;23.52;12.43;;;;;;;;;;5054434;28;20048;-75
2022/11/13 00:26:23;;;;;;;34.00;16.25;;;;;;;;;;5053984;28;20047;-75
2022/11/13 00:28:56;;;;;;;30.27;14.65;;;;;;;;;;5034441;28;20052;-75
2022/11/13 00:31:23;;;;;;;32.22;14.35;;;;;;;;;;5052213;28;20049;-76
2022/11/13 00:33:49;;;;;;;29.63;15.00;;;;;;;;;;5054851;28;20055;-75
2022/11/13 00:36:17;;;;;;;21.83;12.18;;;;;;;;;;5035996;28;20124;-75
2022/11/13 00:38:43;;;;;;;35.35;14.90;;;;;;;;;;5054691;28;20045;-75
2022/11/13 00:41:09;;;;;;;33.67;13.77;;;;;;;;;;5054151;28;20049;-75
2022/11/13 00:43:36;;;;;;;30.52;13.95;;;;;;;;;;5056116;28;20610;-75
2022/11/13 00:46:02;;;;;;;36.90;13.57;;;;;;;;;;5056697;28;20045;-74
2022/11/13 00:48:28;;;;;;;32.65;14.30;;;;;;;;;;5057441;28;20045;-74
2022/11/13 00:50:54;;;;;;;33.80;14.27;;;;;;;;;;5058274;28;20072;-76
2022/11/13 00:53:20;;;;;;;24.85;12.00;;;;;;;;;;5057292;28;20048;-75
2022/11/13 00:55:46;;;;;;;34.33;12.65;;;;;;;;;;5056188;28;20044;-75
2022/11/13 00:58:13;;;;;;;24.15;10.77;;;;;;;;;;5039855;28;20045;-74
2022/11/13 01:00:40;;;;;;;26.73;11.63;;;;;;;;;;5056538;28;20561;-75
2022/11/13 01:03:06;;;;;;;22.00;10.98;;;;;;;;;;5057782;28;20033;-75
2022/11/13 01:05:35;;;;;;;34.05;12.23;;;;;;;;;;5059075;28;20802;-75
2022/11/13 01:08:01;;;;;;;18.05;10.65;;;;;;;;;;5038327;28;20649;-74
2022/11/13 01:10:27;;;;;;;32.97;12.27;;;;;;;;;;5058265;28;20052;-74
2022/11/13 01:12:53;;;;;;;34.05;12.18;;;;;;;;;;5034222;28;20072;-75
2022/11/13 01:15:19;;;;;;;37.38;12.80;;;;;;;;;;5033148;28;20585;-74
2022/11/13 01:17:45;;;;;;;20.33;9.90;;;;;;;;;;5057480;28;20076;-74
2022/11/13 01:20:11;;;;;;;28.52;12.80;;;;;;;;;;5058764;28;20040;-75
2022/11/13 01:22:37;;;;;;;24.95;10.57;;;;;;;;;;5057315;28;20575;-75
2022/11/13 01:25:04;;;;;;;34.50;12.15;;;;;;;;;;5058717;28;20033;-75
2022/11/13 01:27:30;;;;;;;28.48;10.43;;;;;;;;;;5057435;28;20362;-75
2022/11/13 01:29:56;;;;;;;32.85;12.63;;;;;;;;;;5057035;28;20052;-75
2022/11/13 01:32:22;;;;;;;30.38;12.63;;;;;;;;;;5055546;28;20056;-75
2022/11/13 01:34:48;;;;;;;25.90;10.50;;;;;;;;;;5056800;28;20041;-74
2022/11/13 01:37:14;;;;;;;23.02;10.50;;;;;;;;;;5056370;28;20048;-74
2022/11/13 01:39:40;;;;;;;24.45;11.15;;;;;;;;;;5055700;28;20173;-75
2022/11/13 01:42:06;;;;;;;26.38;10.88;;;;;;;;;;5056758;28;20868;-74
2022/11/13 01:45:05;;;;;;;30.25;10.93;;;;;;;;;;5057480;28;20044;-75
2022/11/13 01:47:31;;;;;;;22.80;10.35;;;;;;;;;;5004796;28;20060;-75
2022/11/13 01:50:01;;;;;;;37.45;11.25;;;;;;;;;;5038455;28;20045;-74
2022/11/13 01:52:29;;;;;;;46.35;10.57;;;;;;;;;;5037351;28;20124;-75
2022/11/13 01:54:56;;;;;;;28.75;10.27;;;;;;;;;;5055580;28;20045;-75
2022/11/13 01:57:23;;;;;;;27.08;9.55;;;;;;;;;;5034090;28;20041;-74
2022/11/13 01:59:51;;;;;;;29.77;9.95;;;;;;;;;;5057976;28;21130;-76
2022/11/13 02:02:17;;;;;;;34.80;12.05;;;;;;;;;;5057161;28;20056;-75
2022/11/13 02:04:43;;;;;;;20.73;10.10;;;;;;;;;;5055949;28;20180;-75
2022/11/13 02:07:11;;;;;;;25.48;9.32;;;;;;;;;;5056116;28;20119;-75
2022/11/13 02:09:42;;;;;;;20.30;9.75;;;;;;;;;;5056030;28;20044;-74
2022/11/13 02:12:12;;;;;;;23.58;9.75;;;;;;;;;;5039040;28;20467;-74
2022/11/13 02:14:40;;;;;;;24.08;10.55;;;;;;;;;;5036902;28;20038;-74
2022/11/13 02:17:08;;;;;;;28.20;10.35;;;;;;;;;;5055530;28;20132;-74
2022/11/13 02:19:36;;;;;;;26.52;9.00;;;;;;;;;;5053389;28;20056;-75
2022/11/13 02:22:06;;;;;;;26.73;9.88;;;;;;;;;;5054781;28;20048;-74
2022/11/13 02:24:38;;;;;;;78.20;13.57;;;;;;;;;;5057487;28;20049;-75
2022/11/13 02:27:05;;;;;;;24.45;10.15;;;;;;;;;;5032353;28;20044;-74
2022/11/13 02:29:31;;;;;;;40.22;11.43;;;;;;;;;;5056159;28;20530;-74
2022/11/13 02:31:58;;;;;;;19.75;9.30;;;;;;;;;;5057485;28;20050;-75
2022/11/13 02:34:24;;;;;;;17.73;9.40;;;;;;;;;;5057642;28;20275;-75
2022/11/13 02:36:50;;;;;;;14.07;8.73;;;;;;;;;;5029848;28;20041;-75
2022/11/13 02:39:16;;;;;;;18.25;9.85;;;;;;;;;;5056457;28;20128;-74
2022/11/13 02:41:45;;;;;;;15.02;8.48;;;;;;;;;;5055039;28;20098;-74
2022/11/13 02:44:11;;;;;;;17.35;9.25;;;;;;;;;;5054711;28;20041;-74
2022/11/13 02:46:37;;;;;;;19.77;10.30;;;;;;;;;;5055839;28;21231;-74
2022/11/13 02:49:04;;;;;;;13.73;9.75;;;;;;;;;;5055211;28;20151;-75
2022/11/13 02:51:31;;;;;;;20.08;9.07;;;;;;;;;;5052323;28;20045;-75
2022/11/13 02:53:57;;;;;;;12.75;7.78;;;;;;;;;;5053464;28;20162;-75
2022/11/13 02:56:23;;;;;;;16.20;10.20;;;;;;;;;;5057617;28;20045;-74
2022/11/13 02:58:49;;;;;;;13.75;8.93;;;;;;;;;;5062586;28;20099;-74
2022/11/13 03:01:15;;;;;;;14.65;8.43;;;;;;;;;;5043829;28;20040;-74
2022/11/13 03:03:41;;;;;;;14.75;8.43;;;;;;;;;;5064706;28;20053;-74
2022/11/13 03:06:07;;;;;;;15.38;7.25;;;;;;;;;;5064354;28;20523;-73
2022/11/13 03:08:34;;;;;;;18.75;8.45;;;;;;;;;;5062853;28;20545;-74
2022/11/13 03:11:00;;;;;;;22.58;9.15;;;;;;;;;;5061364;28;20045;-74
2022/11/13 03:13:26;;;;;;;15.20;7.90;;;;;;;;;;5035074;28;20037;-74
2022/11/13 03:15:52;;;;;;;17.30;7.03;;;;;;;;;;5062778;28;20051;-74
2022/11/13 03:18:18;;;;;;;18.10;8.05;;;;;;;;;;5037829;28;20037;-76
2022/11/13 03:20:44;;;;;;;20.60;8.10;;;;;;;;;;5044873;28;20069;-74
2022/11/13 03:23:10;;;;;;;22.45;8.18;;;;;;;;;;5037257;28;20143;-75
2022/11/13 03:25:36;;;;;;;42.78;10.10;;;;;;;;;;5045029;28;20055;-75
2022/11/13 03:28:02;;;;;;;29.08;8.93;;;;;;;;;;5062087;28;20633;-75
2022/11/13 03:30:28;;;;;;;21.60;8.48;;;;;;;;;;5059778;28;20094;-74
2022/11/13 03:32:55;;;;;;;26.65;8.18;;;;;;;;;;5040410;28;20053;-74
2022/11/13 03:35:22;;;;;;;17.88;7.25;;;;;;;;;;5055133;28;22589;-74
2022/11/13 03:37:48;;;;;;;17.10;7.53;;;;;;;;;;5037472;28;20136;-74
2022/11/13 03:40:14;;;;;;;22.80;8.95;;;;;;;;;;5030027;28;20045;-75
2022/11/13 03:42:40;;;;;;;11.40;7.20;;;;;;;;;;5031139;28;20060;-74
2022/11/13 03:45:07;;;;;;;32.40;8.15;;;;;;;;;;5055766;28;20037;-75
2022/11/13 03:47:33;;;;;;;19.00;8.13;;;;;;;;;;5054406;28;20095;-75
2022/11/13 03:49:59;;;;;;;11.48;7.15;;;;;;;;;;5056608;28;20531;-75
2022/11/13 03:52:25;;;;;;;19.00;7.68;;;;;;;;;;5052977;28;20585;-75
2022/11/13 03:54:51;;;;;;;24.83;8.70;;;;;;;;;;5054609;28;20055;-75
2022/11/13 03:57:17;;;;;;;11.57;7.75;;;;;;;;;;5030952;28;20045;-74
2022/11/13 03:59:43;;;;;;;17.00;7.05;;;;;;;;;;5054938;28;20044;-74
2022/11/13 04:02:09;;;;;;;8.20;5.85;;;;;;;;;;5031176;28;20041;-75
2022/11/13 04:04:35;;;;;;;10.30;6.43;;;;;;;;;;5055477;28;20057;-74
2022/11/13 04:07:02;;;;;;;15.98;7.47;;;;;;;;;;5053781;28;20045;-75
2022/11/13 04:09:28;;;;;;;10.13;6.60;;;;;;;;;;5057294;28;20049;-74
2022/11/13 04:11:54;;;;;;;19.10;7.57;;;;;;;;;;5056441;28;20033;-74
2022/11/13 04:14:20;;;;;;;12.45;7.05;;;;;;;;;;5055306;28;20037;-75
2022/11/13 04:16:46;;;;;;;12.20;6.72;;;;;;;;;;5054882;28;20052;-75
2022/11/13 04:19:12;;;;;;;12.20;6.18;;;;;;;;;;5053440;28;20071;-75
2022/11/13 04:21:38;;;;;;;13.18;7.43;;;;;;;;;;5057131;28;20936;-75
2022/11/13 04:24:04;;;;;;;10.98;6.55;;;;;;;;;;5059465;28;20052;-75
2022/11/13 04:26:30;;;;;;;12.60;6.13;;;;;;;;;;5040148;28;20087;-74
2022/11/13 04:28:56;;;;;;;11.00;6.38;;;;;;;;;;5033644;28;20052;-74
2022/11/13 04:31:22;;;;;;;12.32;5.75;;;;;;;;;;5057485;28;20041;-74
2022/11/13 04:33:49;;;;;;;9.43;6.20;;;;;;;;;;5060216;28;20044;-75
2022/11/13 04:36:15;;;;;;;9.52;6.07;;;;;;;;;;5056436;28;20045;-75
2022/11/13 04:38:41;;;;;;;9.75;5.50;;;;;;;;;;5056052;28;20041;-74
2022/11/13 04:43:52;;;;;;;14.43;5.70;;;;;;;;;;5056737;28;20037;-74
2022/11/13 04:46:18;;;;;;;9.32;5.28;;;;;;;;;;5058411;28;20053;-74
2022/11/13 04:48:44;;;;;;;14.77;7.07;;;;;;;;;;5056068;28;20610;-75
2022/11/13 04:51:12;;;;;;;9.90;5.90;;;;;;;;;;5058173;28;20550;-74
2022/11/13 04:53:38;;;;;;;12.95;6.32;;;;;;;;;;5037046;28;20039;-74
2022/11/13 04:56:04;;;;;;;24.33;8.15;;;;;;;;;;5054367;28;20045;-75
2022/11/13 04:58:30;;;;;;;18.92;6.22;;;;;;;;;;5055053;28;20048;-75
2022/11/13 05:00:56;;;;;;;10.65;5.93;;;;;;;;;;5050266;28;20620;-75
2022/11/13 05:03:22;;;;;;;15.55;5.63;;;;;;;;;;5058373;28;20068;-75
2022/11/13 05:05:48;;;;;;;17.45;6.05;;;;;;;;;;5056842;28;20065;-74
2022/11/13 05:08:14;;;;;;;13.60;6.32;;;;;;;;;;5056792;28;20041;-74
2022/11/13 05:10:40;;;;;;;16.63;6.45;;;;;;;;;;5058048;28;20118;-74
2022/11/13 05:13:07;;;;;;;10.85;4.78;;;;;;;;;;5038790;28;20037;-74
2022/11/13 05:15:33;;;;;;;15.20;5.22;;;;;;;;;;5032457;28;20045;-74
2022/11/13 05:17:59;;;;;;;10.95;6.30;;;;;;;;;;5056270;28;20045;-74
2022/11/13 05:20:25;;;;;;;9.70;4.85;;;;;;;;;;5056025;28;20048;-74
2022/11/13 05:22:51;;;;;;;10.32;5.20;;;;;;;;;;5032891;28;20041;-75
2022/11/13 05:25:17;;;;;;;18.92;4.93;;;;;;;;;;5055430;28;20041;-74
2022/11/13 05:27:43;;;;;;;17.15;4.85;;;;;;;;;;5053752;28;20894;-74
2022/11/13 05:30:09;;;;;;;14.32;5.95;;;;;;;;;;5057598;28;20049;-75
2022/11/13 05:32:35;;;;;;;11.30;5.30;;;;;;;;;;5058041;28;20037;-75
2022/11/13 05:35:01;;;;;;;9.77;4.97;;;;;;;;;;5056091;28;20871;-74
2022/11/13 05:37:28;;;;;;;14.93;5.00;;;;;;;;;;5032050;28;20617;-74
2022/11/13 05:39:54;;;;;;;14.27;5.63;;;;;;;;;;5057150;28;20195;-75
2022/11/13 05:42:20;;;;;;;18.70;6.03;;;;;;;;;;5058739;28;20095;-75
2022/11/13 05:44:46;;;;;;;15.50;5.22;;;;;;;;;;5054451;28;20055;-74
2022/11/13 05:47:12;;;;;;;11.85;5.63;;;;;;;;;;5055484;28;20037;-75
2022/11/13 05:49:38;;;;;;;31.23;6.57;;;;;;;;;;5055644;28;20128;-75
2022/11/13 05:52:04;;;;;;;21.67;6.28;;;;;;;;;;5057425;28;20156;-74
2022/11/13 05:54:30;;;;;;;16.80;5.05;;;;;;;;;;5057794;28;20047;-75
2022/11/13 05:56:57;;;;;;;10.77;4.63;;;;;;;;;;5049036;28;20056;-74
2022/11/13 05:59:23;;;;;;;18.00;6.07;;;;;;;;;;5054001;28;20039;-74
2022/11/13 06:01:49;;;;;;;20.45;5.57;;;;;;;;;;5036956;28;20092;-73
2022/11/13 06:04:15;;;;;;;21.85;6.30;;;;;;;;;;5036978;28;20053;-74
2022/11/13 06:06:41;;;;;;;22.38;6.43;;;;;;;;;;5053765;28;20044;-74
2022/11/13 06:09:08;;;;;;;14.90;5.63;;;;;;;;;;5055501;28;20037;-74
2022/11/13 06:11:34;;;;;;;18.48;5.72;;;;;;;;;;5054274;28;20103;-74
2022/11/13 06:14:00;;;;;;;22.95;5.70;;;;;;;;;;5030696;28;20120;-74
2022/11/13 06:16:35;;;;;;;12.75;6.28;;;;;;;;;;5056727;28;20103;-74
2022/11/13 06:19:01;;;;;;;14.20;6.07;;;;;;;;;;5035629;28;20076;-74
2022/11/13 06:21:29;;;;;;;12.50;5.68;;;;;;;;;;5055742;28;20061;-74
2022/11/13 06:23:55;;;;;;;16.95;6.00;;;;;;;;;;5036915;28;20045;-74
2022/11/13 06:26:23;;;;;;;19.70;5.88;;;;;;;;;;5035907;28;20055;-75
2022/11/13 06:28:49;;;;;;;19.63;5.03;;;;;;;;;;5038813;28;20041;-74
2022/11/13 06:31:16;;;;;;;7.53;4.93;;;;;;;;;;5055592;28;20175;-75
2022/11/13 06:33:43;;;;;;;21.10;6.30;;;;;;;;;;5054370;28;20051;-74
2022/11/13 06:36:24;;;;;;;8.85;5.30;;;;;;;;;;5055551;28;20048;-74
2022/11/13 06:38:50;;;;;;;11.50;4.90;;;;;;;;;;5055661;28;20114;-74
2022/11/13 06:41:17;;;;;;;13.55;5.50;;;;;;;;;;5056753;28;20132;-74
2022/11/13 06:43:44;;;;;;;15.82;5.78;;;;;;;;;;5053967;28;20048;-75
2022/11/13 06:46:15;;;;;;;14.30;5.72;;;;;;;;;;5055816;28;20566;-74
2022/11/13 06:48:41;;;;;;;13.15;5.85;;;;;;;;;;5030224;28;20040;-75
2022/11/13 06:51:09;;;;;;;11.68;5.05;;;;;;;;;;5057563;28;20076;-75
2022/11/13 06:53:35;;;;;;;14.15;5.28;;;;;;;;;;5055440;28;20040;-76
2022/11/13 06:56:04;;;;;;;11.27;5.93;;;;;;;;;;5054843;28;20080;-75
2022/11/13 06:58:30;;;;;;;12.45;6.15;;;;;;;;;;5034437;28;20033;-75
2022/11/13 07:00:56;;;;;;;10.77;6.05;;;;;;;;;;5054758;28;20176;-75
2022/11/13 07:03:23;;;;;;;17.35;6.40;;;;;;;;;;5055476;28;20061;-74
2022/11/13 07:05:49;;;;;;;9.18;5.10;;;;;;;;;;5054327;28;20045;-74
2022/11/13 07:08:16;;;;;;;15.32;5.75;;;;;;;;;;5031189;28;20045;-75
2022/11/13 07:10:42;;;;;;;16.15;6.20;;;;;;;;;;5036143;28;20045;-74
2022/11/13 07:13:08;;;;;;;11.23;6.32;;;;;;;;;;5051769;28;20743;-75
2022/11/13 07:15:35;;;;;;;17.08;6.38;;;;;;;;;;5030629;28;20037;-75
2022/11/13 07:18:02;;;;;;;19.40;6.25;;;;;;;;;;5035013;28;20614;-75
2022/11/13 07:20:28;;;;;;;14.05;6.63;;;;;;;;;;5052475;28;20064;-75
2022/11/13 07:22:55;;;;;;;14.65;5.72;;;;;;;;;;5052514;28;20067;-75
2022/11/13 07:25:22;;;;;;;16.25;6.10;;;;;;;;;;5036106;28;20114;-75
2022/11/13 07:27:48;;;;;;;16.92;5.78;;;;;;;;;;5051964;28;20447;-75
2022/11/13 07:30:14;;;;;;;14.55;5.80;;;;;;;;;;5052638;28;20049;-75
2022/11/13 07:32:40;;;;;;;16.38;6.38;;;;;;;;;;5054748;28;20045;-74
2022/11/13 07:35:06;;;;;;;24.92;6.82;;;;;;;;;;5034992;28;20100;-75
2022/11/13 07:37:32;;;;;;;17.63;6.78;;;;;;;;;;5055906;28;20052;-74
2022/11/13 07:39:58;;;;;;;12.80;5.70;;;;;;;;;;5031138;28;20728;-74
2022/11/13 07:42:24;;;;;;;17.98;6.00;;;;;;;;;;5052187;28;20542;-75
2022/11/13 07:44:51;;;;;;;19.52;6.82;;;;;;;;;;5052745;28;20111;-75
2022/11/13 07:47:17;;;;;;;26.65;7.97;;;;;;;;;;5053939;28;20041;-75
2022/11/13 07:49:43;;;;;;;22.48;6.50;;;;;;;;;;5052004;28;20080;-75
2022/11/13 07:52:09;;;;;;;16.38;7.65;;;;;;;;;;5052647;28;20049;-75
2022/11/13 07:54:35;;;;;;;18.08;6.88;;;;;;;;;;5052896;28;20041;-74
2022/11/13 07:57:01;;;;;;;24.55;6.97;;;;;;;;;;5026632;28;20048;-75
2022/11/13 07:59:27;;;;;;;24.30;7.50;;;;;;;;;;5048931;28;20128;-74
2022/11/13 08:01:53;;;;;;;32.08;8.15;;;;;;;;;;5048928;28;20067;-75
2022/11/13 08:04:20;;;;;;;18.45;7.25;;;;;;;;;;5049376;28;20048;-75
2022/11/13 08:06:46;;;;;;;21.02;7.25;;;;;;;;;;5029213;28;20048;-74
2022/11/13 08:09:12;;;;;;;19.17;6.18;;;;;;;;;;5054323;28;20056;-74
2022/11/13 08:11:38;;;;;;;30.45;8.35;;;;;;;;;;5053027;28;20092;-75
2022/11/13 08:14:04;;;;;;;16.25;6.18;;;;;;;;;;5052247;28;20044;-75
2022/11/13 08:16:30;;;;;;;16.00;6.82;;;;;;;;;;5036188;28;20128;-74
2022/11/13 08:18:56;;;;;;;17.08;6.55;;;;;;;;;;5034434;28;21250;-74
2022/11/13 08:21:22;;;;;;;14.50;6.25;;;;;;;;;;5054026;28;20045;-74
2022/11/13 08:23:49;;;;;;;16.00;6.63;;;;;;;;;;5033856;28;20884;-74
2022/11/13 08:26:15;;;;;;;22.42;8.07;;;;;;;;;;5028787;28;20044;-73
2022/11/13 08:28:41;;;;;;;15.30;5.93;;;;;;;;;;5033755;28;20633;-73
2022/11/13 08:31:10;;;;;;;22.20;8.43;;;;;;;;;;5051613;28;20045;-73
2022/11/13 08:33:36;;;;;;;13.07;6.20;;;;;;;;;;5050487;28;20145;-74
2022/11/13 08:36:02;;;;;;;22.83;9.07;;;;;;;;;;5051196;28;20111;-73
2022/11/13 08:38:28;;;;;;;27.65;7.60;;;;;;;;;;5051723;28;20525;-74
2022/11/13 08:40:58;;;;;;;32.67;7.10;;;;;;;;;;5053420;28;20187;-74
2022/11/13 08:43:24;;;;;;;11.02;6.05;;;;;;;;;;5052009;28;20037;-75
2022/11/13 08:45:50;;;;;;;32.33;7.88;;;;;;;;;;5028958;28;20049;-74
2022/11/13 08:48:16;;;;;;;24.23;6.93;;;;;;;;;;5051918;28;21229;-73
2022/11/13 08:50:42;;;;;;;16.67;6.65;;;;;;;;;;5053281;28;20051;-74
2022/11/13 08:53:08;;;;;;;19.92;6.88;;;;;;;;;;5050156;28;20045;-75
2022/11/13 08:55:34;;;;;;;21.35;6.18;;;;;;;;;;5035761;28;20573;-74
2022/11/13 08:58:02;;;;;;;16.40;6.95;;;;;;;;;;5029231;28;20079;-74
2022/11/13 09:00:29;;;;;;;18.02;7.22;;;;;;;;;;5031470;28;20057;-73
2022/11/13 09:02:58;;;;;;;30.98;7.20;;;;;;;;;;5023650;28;20069;-73
2022/11/13 09:05:25;;;;;;;22.77;6.80;;;;;;;;;;5026534;28;20551;-74
2022/11/13 09:07:51;;;;;;;22.90;8.30;;;;;;;;;;5052284;28;20130;-74
2022/11/13 09:10:19;;;;;;;33.90;8.32;;;;;;;;;;5057932;28;20535;-74
2022/11/13 09:12:45;;;;;;;19.35;6.47;;;;;;;;;;5057850;28;21045;-73
2022/11/13 09:15:11;;;;;;;24.95;8.88;;;;;;;;;;5055470;28;20041;-73
2022/11/13 09:17:38;;;;;;;38.45;9.32;;;;;;;;;;5055534;28;20137;-74
2022/11/13 09:20:08;;;;;;;20.88;7.25;;;;;;;;;;5054119;28;20049;-74
2022/11/13 09:22:34;;;;;;;25.42;8.52;;;;;;;;;;5035432;28;20580;-74
2022/11/13 09:25:00;;;;;;;24.38;8.23;;;;;;;;;;5055709;28;20057;-73
2022/11/13 09:27:26;;;;;;;24.15;7.95;;;;;;;;;;5057593;28;20037;-75
2022/11/13 09:29:52;;;;;;;25.60;9.45;;;;;;;;;;5056253;28;20625;-75
2022/11/13 09:32:18;;;;;;;22.55;7.80;;;;;;;;;;5057294;28;20044;-75
2022/11/13 09:34:44;;;;;;;37.53;9.65;;;;;;;;;;5056704;28;20579;-74
2022/11/13 09:37:10;;;;;;;23.38;8.45;;;;;;;;;;5057203;28;20598;-74
2022/11/13 09:39:37;;;;;;;28.77;9.13;;;;;;;;;;5057088;28;20430;-74
2022/11/13 09:42:17;;;;;;;15.32;8.43;;;;;;;;;;5056981;28;20047;-74
2022/11/13 09:45:06;;;;;;;27.13;9.05;;;;;;;;;;5057160;28;20042;-74
2022/11/13 09:47:37;;;;;;;35.10;10.55;;;;;;;;;;5040276;28;20116;-74
2022/11/13 09:50:03;;;;;;;16.83;8.77;;;;;;;;;;5057536;28;20531;-75
2022/11/13 09:52:36;;;;;;;21.52;8.35;;;;;;;;;;5055788;28;20044;-74
2022/11/13 09:55:03;;;;;;;26.30;9.00;;;;;;;;;;5037736;28;20111;-74
2022/11/13 09:57:39;;;;;;;15.15;7.88;;;;;;;;;;5057434;28;20041;-74
2022/11/13 10:00:10;;;;;;;15.10;7.97;;;;;;;;;;5054774;28;20079;-75
2022/11/13 10:02:45;;;;;;;17.17;8.23;;;;;;;;;;5033164;28;20045;-74
2022/11/13 10:05:23;;;;;;;28.92;9.98;;;;;;;;;;5039558;28;21010;-75
2022/11/13 10:07:52;;;;;;;33.38;10.32;;;;;;;;;;5057820;28;20152;-74
2022/11/13 10:10:27;;;;;;;41.15;8.65;;;;;;;;;;5056272;28;20115;-75
2022/11/13 10:12:55;;;;;;;18.27;8.15;;;;;;;;;;5058063;28;20653;-74
2022/11/13 10:15:21;;;;;;;22.08;8.77;;;;;;;;;;5039180;28;20071;-75
2022/11/13 10:17:47;;;;;;;18.45;8.60;;;;;;;;;;5037163;28;20045;-74
2022/11/13 10:20:18;;;;;;;13.07;7.70;;;;;;;;;;5032915;28;20106;-74
2022/11/13 10:22:44;;;;;;;13.30;7.68;;;;;;;;;;5056578;28;20529;-75
2022/11/13 10:25:13;;;;;;;11.75;6.85;;;;;;;;;;5057673;28;20045;-75
2022/11/13 10:27:39;;;;;;;17.38;7.43;;;;;;;;;;5040145;28;20037;-75
2022/11/13 10:30:13;;;;;;;19.73;7.82;;;;;;;;;;5057526;28;20049;-75
2022/11/13 10:32:39;;;;;;;18.52;8.80;;;;;;;;;;5038915;28;20045;-74
2022/11/13 10:35:05;;;;;;;9.82;7.03;;;;;;;;;;5057919;28;20033;-75
2022/11/13 10:37:48;;;;;;;17.50;7.72;;;;;;;;;;5039653;28;20124;-76
2022/11/13 10:40:27;;;;;;;13.10;7.75;;;;;;;;;;5056582;28;20037;-74
2022/11/13 10:42:53;;;;;;;12.27;7.35;;;;;;;;;;5039529;28;20048;-76
2022/11/13 10:45:21;;;;;;;11.13;7.45;;;;;;;;;;5057518;28;20052;-76
2022/11/13 10:47:49;;;;;;;12.02;6.80;;;;;;;;;;5057838;28;20037;-75
2022/11/13 10:50:21;;;;;;;11.23;7.47;;;;;;;;;;5034552;28;20131;-74
2022/11/13 10:52:48;;;;;;;10.80;6.55;;;;;;;;;;5056509;28;20045;-74
2022/11/13 10:55:20;;;;;;;17.67;8.60;;;;;;;;;;5056965;28;20041;-74
2022/11/13 10:57:54;;;;;;;15.75;8.07;;;;;;;;;;5053845;28;20519;-75
2022/11/13 11:00:27;;;;;;;13.95;8.38;;;;;;;;;;5055975;28;20555;-75
2022/11/13 11:02:53;;;;;;;13.30;8.55;;;;;;;;;;5054497;28;20167;-75
2022/11/13 11:05:20;;;;;;;12.13;8.82;;;;;;;;;;5056643;28;20092;-75
2022/11/13 11:07:46;;;;;;;13.50;9.25;;;;;;;;;;5055821;28;21224;-76
2022/11/13 11:10:21;;;;;;;20.45;8.82;;;;;;;;;;5056150;28;20052;-75
2022/11/13 11:12:54;;;;;;;19.92;9.57;;;;;;;;;;5057323;28;20037;-75
2022/11/13 11:15:20;;;;;;;12.55;9.20;;;;;;;;;;5047434;28;20099;-76
2022/11/13 11:18:06;;;;;;;11.48;9.15;;;;;;;;;;5045633;28;20053;-75
2022/11/13 11:20:42;;;;;;;14.15;9.45;;;;;;;;;;5037605;28;20236;-75
2022/11/13 11:23:14;;;;;;;14.45;9.55;;;;;;;;;;5046552;28;20041;-76
2022/11/13 11:25:46;;;;;;;13.57;9.15;;;;;;;;;;5030026;28;20045;-74
2022/11/13 11:28:12;;;;;;;;;;;;;;;;;;5056281;28;20041;-75
2022/11/13 11:30:47;;;;;;;15.55;8.77;;;;;;;;;;5056320;28;20422;-76
2022/11/13 11:33:25;;;;;;;14.63;8.93;;;;;;;;;;5031476;28;20045;-75
2022/11/13 11:35:51;;;;;;;14.57;9.20;;;;;;;;;;5055899;28;20052;-75
2022/11/13 11:38:32;;;;;;;11.57;7.75;;;;;;;;;;5056690;28;20040;-75
2022/11/13 11:41:15;;;;;;;10.35;8.15;;;;;;;;;;5049414;28;20041;-76
2022/11/13 11:43:43;;;;;;;10.95;7.57;;;;;;;;;;5030645;28;20526;-76
2022/11/13 11:46:13;;;;;;;11.15;7.75;;;;;;;;;;5055937;28;20124;-75
2022/11/13 11:48:39;;;;;;;11.10;7.47;;;;;;;;;;5037492;28;20037;-76
2022/11/13 11:51:11;;;;;;;11.57;8.13;;;;;;;;;;5038272;28;20040;-76
2022/11/13 11:53:39;;;;;;;;;;;;;;;;;;5058125;28;20036;-76
2022/11/13 11:56:08;;;;;;;11.80;7.78;;;;;;;;;;5030588;28;20061;-76
2022/11/13 11:58:37;;;;;;;16.17;10.43;;;;;;;;;;5035441;28;20041;-75
2022/11/13 12:01:22;;;;;;;14.10;9.98;;;;;;;;;;5050933;28;20629;-75
2022/11/13 12:03:54;;;;;;;15.73;9.60;;;;;;;;;;5052914;28;20172;-75
2022/11/13 12:06:20;;;;;;;;;;;;;;;;;;5030296;28;20037;-75
2022/11/13 12:08:46;;;;;;;12.57;8.77;;;;;;;;;;5051589;28;20420;-75
2022/11/13 12:11:16;;;;;;;12.07;8.73;;;;;;;;;;5054955;28;20572;-76
2022/11/13 12:13:54;;;;;;;11.93;8.15;;;;;;;;;;5028844;28;20548;-75
2022/11/13 12:16:39;;;;;;;17.02;9.55;;;;;;;;;;5053381;28;20105;-76
2022/11/13 12:19:14;;;;;;;16.77;11.27;;;;;;;;;;5050526;28;20446;-75
2022/11/13 12:21:49;;;;;;;16.90;11.13;;;;;;;;;;5036880;28;20140;-75
2022/11/13 12:24:34;;;;;;;21.50;10.77;;;;;;;;;;5025471;28;20037;-76
2022/11/13 12:27:12;;;;;;;22.70;13.30;;;;;;;;;;5048026;28;20036;-75
2022/11/13 12:29:54;;;;;;;18.50;12.35;;;;;;;;;;5050312;28;20041;-75
2022/11/13 12:32:39;;;;;;;14.43;10.45;;;;;;;;;;5048202;28;20049;-74
2022/11/13 12:35:11;;;;;;;15.95;10.85;;;;;;;;;;5033597;28;20037;-74
2022/11/13 12:37:43;;;;;;;20.75;11.43;;;;;;;;;;5053655;28;20045;-74
2022/11/13 12:40:18;;;;;;;17.98;13.23;;;;;;;;;;5034995;28;20037;-74
2022/11/13 12:42:48;;;;;;;20.40;13.60;;;;;;;;;;5040128;28;20127;-74
2022/11/13 12:45:23;;;;;;;22.15;14.80;;;;;;;;;;5053390;28;20812;-74
2022/11/13 12:47:50;;;;;;;20.55;13.60;;;;;;;;;;5032303;28;20048;-74
2022/11/13 12:50:23;;;;;;;24.60;16.80;;;;;;;;;;5054051;28;20045;-73
2022/11/13 12:53:02;;;;;;;24.38;14.85;;;;;;;;;;5058279;28;20524;-74
2022/11/13 12:55:30;;;;;;;23.30;15.13;;;;;;;;;;5056760;28;20044;-75
2022/11/13 12:58:03;;;;;;;21.60;13.45;;;;;;;;;;5034077;28;20064;-74
2022/11/13 13:00:30;;;;;;;21.88;14.23;;;;;;;;;;5056598;28;20048;-74
2022/11/13 13:03:16;;;;;;;21.95;15.10;;;;;;;;;;5041434;28;20044;-74
2022/11/13 13:06:03;;;;;;;17.45;12.75;;;;;;;;;;5056570;28;20055;-75
2022/11/13 13:08:45;;;;;;;21.00;14.07;;;;;;;;;;5041973;28;20052;-75
2022/11/13 13:11:17;;;;;;;17.55;13.13;;;;;;;;;;5058944;28;20098;-73
2022/11/13 13:13:51;;;;;;;17.73;12.10;;;;;;;;;;5037662;28;20453;-74
2022/11/13 13:16:27;;;;;;;17.67;11.93;;;;;;;;;;5062889;28;20565;-74
2022/11/13 13:19:05;;;;;;;17.27;12.43;;;;;;;;;;5061379;28;20045;-74
2022/11/13 13:21:40;;;;;;;18.58;12.32;;;;;;;;;;5062585;28;20040;-74
2022/11/13 13:24:07;;;;;;;18.20;12.32;;;;;;;;;;5060960;28;20095;-74
2022/11/13 13:26:43;;;;;;;16.75;12.95;;;;;;;;;;5056861;28;20450;-74
2022/11/13 13:29:17;;;;;;;17.27;12.48;;;;;;;;;;5037232;28;20041;-74
2022/11/13 13:31:49;;;;;;;13.73;9.77;;;;;;;;;;5058540;28;20600;-75
2022/11/13 13:34:15;;;;;;;18.90;12.07;;;;;;;;;;5056395;28;20047;-76
2022/11/13 13:36:59;;;;;;;17.55;11.38;;;;;;;;;;5056675;28;20053;-74
2022/11/13 13:39:28;;;;;;;17.08;11.75;;;;;;;;;;5033210;28;21232;-73
2022/11/13 13:41:54;;;;;;;13.43;9.65;;;;;;;;;;5057696;28;20128;-74
2022/11/13 13:44:40;;;;;;;14.32;10.70;;;;;;;;;;5060837;28;20053;-73
2022/11/13 13:47:14;;;;;;;16.13;12.00;;;;;;;;;;5048251;28;20068;-74
2022/11/13 13:49:40;;;;;;;17.17;11.63;;;;;;;;;;5076324;28;20111;-74
2022/11/13 13:52:06;;;;;;;17.48;11.00;;;;;;;;;;5069647;28;20108;-74
2022/11/13 13:54:33;;;;;;;16.83;10.63;;;;;;;;;;5060087;28;20045;-73
2022/11/13 13:57:00;;;;;;;16.25;11.77;;;;;;;;;;5059770;28;20052;-73
2022/11/13 13:59:34;;;;;;;16.83;11.27;;;;;;;;;;5056657;28;20941;-75
2022/11/13 14:02:01;;;;;;;16.50;11.38;;;;;;;;;;5042641;28;20080;-75
2022/11/13 14:04:29;;;;;;;23.05;12.65;;;;;;;;;;5060498;28;20053;-75
2022/11/13 14:06:56;;;;;;;15.95;11.60;;;;;;;;;;5049983;28;20041;-75
2022/11/13 14:09:23;;;;;;;15.05;10.80;;;;;;;;;;5057384;28;20989;-74
2022/11/13 14:11:59;;;;;;;19.20;10.60;;;;;;;;;;5056636;28;20553;-76
2022/11/13 14:14:26;;;;;;;16.23;10.27;;;;;;;;;;5056416;28;20541;-74
2022/11/13 14:16:53;;;;;;;17.33;11.05;;;;;;;;;;5073337;28;20037;-74
2022/11/13 14:19:20;;;;;;;17.35;10.77;;;;;;;;;;5073159;28;20044;-75
2022/11/13 14:21:48;;;;;;;16.77;11.40;;;;;;;;;;5065540;28;20033;-73
2022/11/13 14:24:17;;;;;;;14.60;10.32;;;;;;;;;;5066057;28;20041;-76
2022/11/13 14:26:43;;;;;;;15.18;10.07;;;;;;;;;;5035046;28;20033;-75
2022/11/13 14:29:20;;;;;;;22.05;11.95;;;;;;;;;;5058519;28;20048;-75
2022/11/13 14:31:48;;;;;;;16.05;10.65;;;;;;;;;;5055658;28;20127;-74
2022/11/13 14:34:17;;;;;;;19.23;12.38;;;;;;;;;;5034152;28;20208;-75
2022/11/13 14:36:43;;;;;;;19.33;12.52;;;;;;;;;;5032412;28;20044;-75